Home > Products > Valid Products > TAF

000
FTUS43 KMPX 220200 AAA
TAFMSP
TAF AMD
KMSP 220247Z 2203/2306 13012KT P6SM SKC
     FM221400 14015G21KT P6SM SCT050 BKN150
     FM222100 15014G20KT P6SM BKN050 OVC120
     FM230200 15011KT P6SM OVC045 PROB30 2302/2306 5SM -SHRA=



000
FTUS43 KMPX 220200 AAA
TAFMSP
TAF AMD
KMSP 220247Z 2203/2306 13012KT P6SM SKC
     FM221400 14015G21KT P6SM SCT050 BKN150
     FM222100 15014G20KT P6SM BKN050 OVC120
     FM230200 15011KT P6SM OVC045 PROB30 2302/2306 5SM -SHRA=



000
FTUS43 KMPX 212300
TAFRWF
TAF
KRWF 212334Z 2200/2224 14011KT P6SM SCT250
     FM221200 15014G22KT P6SM VCSH SCT015 BKN050
     FM221600 16018G24KT P6SM SCT020 BKN040
     FM222200 17016KT P6SM SCT015 OVC035 PROB30 2222/2224 -SHRA=



000
FTUS43 KMPX 212300
TAFSTC
TAF
KSTC 212334Z 2200/2224 14009KT P6SM SCT250
     FM221300 16012G18KT P6SM VCSH SCT015 BKN050
     FM221700 17016G23KT P6SM SCT020 BKN040=



000
FTUS43 KMPX 212300
TAFAXN
TAF
KAXN 212334Z 2200/2224 15011G18KT P6SM SCT250
     FM221200 16018G24KT P6SM VCSH SCT015 BKN050
     FM221600 17019G26KT P6SM SCT020 BKN040
     FM222200 16013KT P6SM SCT015 OVC035 PROB30 2222/2224 -SHRA=



000
FTUS43 KMPX 212300
TAFEAU
TAF
KEAU 212334Z 2200/2224 12005KT P6SM SKC
     FM221500 14012G18KT P6SM SCT050 BKN200
     FM222000 15013G20KT P6SM BKN050 OVC120=



000
FTUS43 KMPX 212300
TAFMSP
TAF
KMSP 212334Z 2200/2306 13009KT P6SM SKC
     FM221400 14015G21KT P6SM SCT050 BKN150
     FM222100 15014G20KT P6SM BKN050 OVC120
     FM230200 15011KT P6SM OVC045 PROB30 2302/2306 5SM -SHRA=



000
FTUS43 KMPX 212000 AAA
TAFMSP
TAF AMD
KMSP 212007Z 2120/2224 12011KT P6SM SKC
     FM220000 14008KT P6SM SKC
     FM221400 15013G19KT P6SM SCT250
     FM221800 16016G22KT P6SM BKN040 OVC150=



000
FTUS43 KMPX 211700
TAFMSP
TAF
KMSP 211729Z 2118/2224 12011KT P6SM SKC
     FM220000 14008KT P6SM SKC
     FM221400 15013G19KT P6SM SCT250
     FM221800 16018G24KT P6SM BKN040 OVC150=



000
FTUS43 KMPX 211700
TAFEAU
TAF
KEAU 211729Z 2118/2218 10008KT P6SM SKC
     FM220000 12005KT P6SM SKC
     FM221500 16012G19KT P6SM BKN150=



000
FTUS43 KMPX 211700
TAFSTC
TAF
KSTC 211729Z 2118/2218 13010G17KT P6SM SKC
     FM220000 14009KT P6SM SCT200
     FM221500 16018G24KT P6SM BKN020 OVC200=



000
FTUS43 KMPX 211700
TAFRWF
TAF
KRWF 211729Z 2118/2218 14012G18KT P6SM SKC
     FM220000 14011KT P6SM SCT250
     FM221400 17018G24KT P6SM BKN020 OVC200=



000
FTUS43 KMPX 211700
TAFAXN
TAF
KAXN 211729Z 2118/2218 14012G19KT P6SM SKC
     FM220000 15011G18KT P6SM SCT250
     FM221300 16018G24KT P6SM BKN015 OVC200=



000
FTUS43 KMPX 211600 AAB
TAFEAU
TAF AMD
KEAU 211604Z 2116/2212 09008KT P6SM SCT020
      TEMPO 2116/2118 BKN020
     FM211800 10008KT P6SM SCT030
     FM220000 12005KT P6SM SKC=



000
FTUS43 KMPX 211600 AAB
TAFEAU
TAF AMD
KEAU 211604Z 2116/2212 09008KT P6SM SCT020
      TEMPO 2116/2118 BKN020
     FM211800 10008KT P6SM SCT030
     FM220000 12005KT P6SM SKC=



000
FTUS43 KMPX 211600 AAA
TAFSTC
TAF AMD
KSTC 211603Z 2116/2212 13012G19KT P6SM SKC
     FM220000 14009KT P6SM SCT250=



000
FTUS43 KMPX 211600 AAA
TAFSTC
TAF AMD
KSTC 211603Z 2116/2212 13012G19KT P6SM SKC
     FM220000 14009KT P6SM SCT250=



000
FTUS43 KMPX 211500 AAA
TAFRWF
TAF AMD
KRWF 211524Z 2115/2212 14015G20KT P6SM SKC
     FM220000 14011KT P6SM SCT250=



000
FTUS43 KMPX 211500 AAA
TAFRWF
TAF AMD
KRWF 211524Z 2115/2212 14015G20KT P6SM SKC
     FM220000 14011KT P6SM SCT250=



000
FTUS43 KMPX 211500 AAA
TAFAXN
TAF AMD
KAXN 211523Z 2115/2212 14015G21KT P6SM SKC
     FM220000 15012G19KT P6SM SCT250=



000
FTUS43 KMPX 211500 AAA
TAFAXN
TAF AMD
KAXN 211523Z 2115/2212 14015G21KT P6SM SKC
     FM220000 15012G19KT P6SM SCT250=



000
FTUS43 KMPX 211400 AAA
TAFMSP
TAF AMD
KMSP 211406Z 2114/2218 12011KT P6SM SKC
     FM220000 14008KT P6SM SKC
     FM221400 15011KT P6SM SCT250=



000
FTUS43 KMPX 211300 AAA
TAFEAU
TAF AMD
KEAU 211358Z 2114/2212 06004KT P6SM FEW020
      TEMPO 2114/2116 BKN020
     FM211600 10008KT P6SM FEW040
     FM220000 12005KT P6SM SKC=



000
FTUS43 KMPX 211100
TAFRWF
TAF
KRWF 211139Z 2112/2212 13006KT P6SM SKC
     FM211600 14015G21KT P6SM SKC
     FM220000 14011KT P6SM SCT250=



000
FTUS43 KMPX 211100
TAFMSP
TAF
KMSP 211139Z 2112/2218 09006KT P6SM SKC
     FM211800 12011KT P6SM SKC
     FM220000 14008KT P6SM SKC
     FM221400 15011KT P6SM SCT250=



000
FTUS43 KMPX 211100
TAFAXN
TAF
KAXN 211139Z 2112/2212 12010KT P6SM SKC
     FM211600 14017G24KT P6SM SKC
     FM220000 15012G19KT P6SM SCT250=



000
FTUS43 KMPX 211100
TAFSTC
TAF
KSTC 211139Z 2112/2212 11006KT P6SM SKC
     FM211600 13012G19KT P6SM SKC
     FM220000 14009KT P6SM SCT250=



000
FTUS43 KMPX 211100
TAFEAU
TAF
KEAU 211139Z 2112/2212 06004KT P6SM FEW020
     FM211600 10008KT P6SM FEW040
     FM220000 12005KT P6SM SKC=



000
FTUS43 KMPX 211100
TAFRWF
TAF
KRWF 211139Z 2112/2212 13006KT P6SM SKC
     FM211600 14015G21KT P6SM SKC
     FM220000 14011KT P6SM SCT250=



000
FTUS43 KMPX 211100
TAFEAU
TAF
KEAU 211139Z 2112/2212 06004KT P6SM FEW020
     FM211600 10008KT P6SM FEW040
     FM220000 12005KT P6SM SKC=



000
FTUS43 KMPX 211100
TAFAXN
TAF
KAXN 211139Z 2112/2212 12010KT P6SM SKC
     FM211600 14017G24KT P6SM SKC
     FM220000 15012G19KT P6SM SCT250=



000
FTUS43 KMPX 211100
TAFMSP
TAF
KMSP 211139Z 2112/2218 09006KT P6SM SKC
     FM211800 12011KT P6SM SKC
     FM220000 14008KT P6SM SKC
     FM221400 15011KT P6SM SCT250=



000
FTUS43 KMPX 211100
TAFSTC
TAF
KSTC 211139Z 2112/2212 11006KT P6SM SKC
     FM211600 13012G19KT P6SM SKC
     FM220000 14009KT P6SM SCT250=



000
FTUS43 KMPX 210800 AAA
TAFMSP
TAF AMD
KMSP 210854Z 2109/2212 VRB03KT P6SM SKC
     FM211200 10006KT P6SM FEW045
     FM211600 12009KT P6SM SKC=



000
FTUS43 KMPX 210800 AAA
TAFEAU
TAF AMD
KEAU 210853Z 2109/2206 VRB03KT P6SM SCT040
      TEMPO 2109/2112 1SM BR SCT002
     FM211200 08004KT P6SM SCT035
     FM211600 12007KT P6SM FEW045=



000
FTUS43 KMPX 210500
TAFMSP
TAF
KMSP 210520Z 2106/2212 VRB03KT P6SM SKC
     FM211200 10006KT P6SM FEW045
     FM211600 12009KT P6SM SKC=



000
FTUS43 KMPX 210500
TAFEAU
TAF
KEAU 210520Z 2106/2206 VRB03KT P6SM SCT040
     FM211200 08004KT P6SM SCT035
     FM211600 12007KT P6SM FEW045=



000
FTUS43 KMPX 210500
TAFRWF
TAF
KRWF 210520Z 2106/2206 08004KT P6SM SKC
     FM211200 13006KT P6SM SKC
     FM211600 15015G21KT P6SM SKC=



000
FTUS43 KMPX 210500
TAFSTC
TAF
KSTC 210520Z 2106/2206 07003KT P6SM SKC
     FM211200 11006KT P6SM SKC
     FM211600 15012G16KT P6SM SKC=



000
FTUS43 KMPX 210500
TAFAXN
TAF
KAXN 210520Z 2106/2206 11006KT P6SM SKC
     FM211200 12010KT P6SM SKC
     FM211600 14017G24KT P6SM SKC=



000
FTUS43 KMPX 210200 AAA
TAFMSP
TAF AMD
KMSP 210245Z 2103/2206 05005KT P6SM SKC
     FM211000 09006KT P6SM SKC
     FM211600 12009KT P6SM SKC=



000
FTUS43 KMPX 210200 AAA
TAFMSP
TAF AMD
KMSP 210245Z 2103/2206 05005KT P6SM SKC
     FM211000 09006KT P6SM SKC
     FM211600 12009KT P6SM SKC=



000
FTUS43 KMPX 202300
TAFSTC
TAF
KSTC 202334Z 2100/2124 02003KT P6SM SKC
     FM211000 10005KT P6SM SKC
     FM211600 14012G16KT P6SM SKC=



000
FTUS43 KMPX 202300
TAFRWF
TAF
KRWF 202334Z 2100/2124 03003KT P6SM SKC
     FM211000 13006KT P6SM SKC
     FM211600 15014G20KT P6SM SKC=



000
FTUS43 KMPX 202300
TAFEAU
TAF
KEAU 202334Z 2100/2124 02003KT P6SM SCT040
     FM211000 06004KT P6SM SKC
     FM211600 12007KT P6SM SKC=



000
FTUS43 KMPX 202300
TAFAXN
TAF
KAXN 202334Z 2100/2124 03003KT P6SM SKC
     FM211000 12010KT P6SM SKC
     FM211600 14015G22KT P6SM SKC=



000
FTUS43 KMPX 202300
TAFMSP
TAF
KMSP 202334Z 2100/2206 02004KT P6SM SKC
     FM211000 09005KT P6SM SKC
     FM211600 12009KT P6SM SKC=



000
FTUS43 KMPX 202000 AAA
TAFMSP
TAF AMD
KMSP 202046Z 2021/2124 33009KT P6SM SKC
     FM210000 VRB03KT P6SM SKC
     FM211000 09004KT P6SM SKC
     FM211400 12008KT P6SM SKC=



000
FTUS43 KMPX 201700
TAFMSP
TAF
KMSP 201727Z 2018/2124 34010KT P6SM FEW040
     FM210000 VRB03KT P6SM SKC
     FM211000 09004KT P6SM SKC
     FM211400 12008KT P6SM SKC=



000
FTUS43 KMPX 201700
TAFEAU
TAF
KEAU 201727Z 2018/2118 34010KT P6SM SCT040
      TEMPO 2018/2022 BKN040
     FM210000 VRB03KT P6SM SKC
     FM211000 05004KT P6SM SKC
     FM211400 08007KT P6SM SKC=



000
FTUS43 KMPX 201700
TAFAXN
TAF
KAXN 201727Z 2018/2118 35009KT P6SM SKC
     FM210000 VRB03KT P6SM SKC
     FM211000 12006KT P6SM SKC
     FM211400 14013G20KT P6SM SKC=



000
FTUS43 KMPX 201700
TAFSTC
TAF
KSTC 201727Z 2018/2118 34010KT P6SM FEW040
     FM210000 VRB03KT P6SM SKC
     FM211000 10005KT P6SM SKC
     FM211400 13010KT P6SM SKC=



000
FTUS43 KMPX 201700
TAFRWF
TAF
KRWF 201727Z 2018/2118 33011KT P6SM SKC
     FM210000 VRB03KT P6SM SKC
     FM211000 12005KT P6SM SKC
     FM211400 13011G18KT P6SM SKC=



000
FTUS43 KMPX 201400 AAA
TAFMSP
TAF AMD
KMSP 201455Z 2015/2118 31009KT P6SM FEW040
     FM210000 02004KT P6SM SKC
     FM211000 11004KT P6SM SKC=



000
FTUS43 KMPX 201100
TAFSTC
TAF
KSTC 201132Z 2012/2112 31006KT P6SM SKC
     FM201500 33008KT P6SM SKC
     FM210500 08003KT P6SM SKC=



000
FTUS43 KMPX 201100
TAFEAU
TAF
KEAU 201132Z 2012/2112 31006KT P6SM SKC
     FM201500 33010KT P6SM BKN035
     FM202200 35007KT P6SM SCT050 SCT250
     FM210200 02004KT P6SM FEW250=



000
FTUS43 KMPX 201100
TAFMSP
TAF
KMSP 201132Z 2012/2118 28005KT P6SM SKC
     FM201600 31009KT P6SM SCT040
     FM210000 02004KT P6SM SKC
     FM211000 11004KT P6SM SKC=



000
FTUS43 KMPX 201100
TAFRWF
TAF
KRWF 201132Z 2012/2112 29008KT P6SM SKC
     FM201500 32009KT P6SM SKC
     FM210500 12005KT P6SM SKC=



000
FTUS43 KMPX 201100
TAFAXN
TAF
KAXN 201132Z 2012/2112 31006KT P6SM SKC
     FM201500 33009KT P6SM SKC
     FM210500 12006KT P6SM SKC=



000
FTUS43 KMPX 200800 AAA
TAFMSP
TAF AMD
KMSP 200845Z 2009/2112 31007KT P6SM SKC
     FM201500 33010KT P6SM SCT250
     FM210000 02006KT P6SM SKC
     FM210600 07004KT P6SM SKC=



000
FTUS43 KMPX 200500
TAFRWF
TAF
KRWF 200530Z 2006/2106 33008KT P6SM SKC
     FM201500 33010KT P6SM SKC
     FM210000 VRB04KT P6SM SKC=



000
FTUS43 KMPX 200500
TAFAXN
TAF
KAXN 200530Z 2006/2106 31006KT P6SM SKC
     FM201500 33009KT P6SM SKC
     FM210000 VRB04KT P6SM SKC=



000
FTUS43 KMPX 200500
TAFMSP
TAF
KMSP 200530Z 2006/2112 31008KT P6SM SKC
     FM201500 33010KT P6SM SCT250
     FM210000 02006KT P6SM SKC
     FM210600 07004KT P6SM SKC=



000
FTUS43 KMPX 200500
TAFSTC
TAF
KSTC 200530Z 2006/2106 32008KT P6SM SKC
     FM201500 34010KT P6SM SKC
     FM210000 VRB03KT P6SM SKC=



000
FTUS43 KMPX 200500
TAFEAU
TAF
KEAU 200530Z 2006/2106 VRB04KT P6SM SKC
     FM200900 31006KT P6SM SKC
     FM201500 33010KT P6SM BKN050
     FM202100 35007KT P6SM SCT050 SCT250
     FM210000 02005KT P6SM SCT250=



000
FTUS43 KMPX 200200 AAA
TAFMSP
TAF AMD
KMSP 200254Z 2003/2106 31008KT P6SM SKC
     FM201500 33010KT P6SM SCT250
     FM210000 02006KT P6SM SKC=



000
FTUS43 KMPX 192300 RRA
TAFRWF
TAF
KRWF 192339Z 2000/2024 31010KT P6SM SKC
     FM200600 30007KT P6SM SKC
     FM201500 33010KT P6SM SKC=



000
FTUS43 KMPX 192300 RRA
TAFMSP
TAF
KMSP 192339Z 2000/2106 28009KT P6SM SKC
     FM200400 31006KT P6SM SKC
     FM201500 33010KT P6SM SCT250
     FM210000 02006KT P6SM SKC=



000
FTUS43 KMPX 192300 RRA
TAFSTC
TAF
KSTC 192339Z 2000/2024 30010KT P6SM SKC
     FM200600 32006KT P6SM SKC
     FM201500 34010KT P6SM SKC=



000
FTUS43 KMPX 192300 RRA
TAFAXN
TAF
KAXN 192339Z 2000/2024 33010KT P6SM SKC
     FM200600 31006KT P6SM SKC
     FM201500 33009KT P6SM SKC=



000
FTUS43 KMPX 192300 RRA
TAFEAU
TAF
KEAU 192339Z 2000/2024 VRB04KT P6SM SKC
     FM200600 31006KT P6SM SKC
     FM201200 32008KT P6SM SCT050 SCT250
     FM201500 33010KT P6SM BKN050
     FM202100 35007KT P6SM SCT050 SCT250=



000
FTUS43 KMPX 192300 RRA
TAFAXN
TAF
KAXN 192339Z 2000/2024 33010KT P6SM SKC
     FM200600 31006KT P6SM SKC
     FM201500 33009KT P6SM SKC=



000
FTUS43 KMPX 192300 RRA
TAFRWF
TAF
KRWF 192339Z 2000/2024 31010KT P6SM SKC
     FM200600 30007KT P6SM SKC
     FM201500 33010KT P6SM SKC=



000
FTUS43 KMPX 192300 RRA
TAFEAU
TAF
KEAU 192339Z 2000/2024 VRB04KT P6SM SKC
     FM200600 31006KT P6SM SKC
     FM201200 32008KT P6SM SCT050 SCT250
     FM201500 33010KT P6SM BKN050
     FM202100 35007KT P6SM SCT050 SCT250=



000
FTUS43 KMPX 192300 RRA
TAFMSP
TAF
KMSP 192339Z 2000/2106 28009KT P6SM SKC
     FM200400 31006KT P6SM SKC
     FM201500 33010KT P6SM SCT250
     FM210000 02006KT P6SM SKC=



000
FTUS43 KMPX 192300 RRA
TAFSTC
TAF
KSTC 192339Z 2000/2024 30010KT P6SM SKC
     FM200600 32006KT P6SM SKC
     FM201500 34010KT P6SM SKC=



000
FTUS43 KMPX 192100 AAA
TAFMSP
TAF AMD
KMSP 192100Z 1921/2024 23013G18KT P6SM SKC
     FM192300 28007KT P6SM SKC
     FM200500 32006KT P6SM SKC=



000
FTUS43 KMPX 191700
TAFMSP
TAF
KMSP 191720Z 1918/2024 23013G18KT P6SM SKC
     FM192300 28007KT P6SM SKC
     FM200500 32006KT P6SM SKC=



000
FTUS43 KMPX 191700
TAFRWF
TAF
KRWF 191720Z 1918/2018 27010G15KT P6SM SKC
     FM200100 31007KT P6SM SKC=



000
FTUS43 KMPX 191700
TAFSTC
TAF
KSTC 191720Z 1918/2018 22011KT P6SM SKC
     FM191900 27010KT P6SM SKC
     FM200100 32006KT P6SM SKC=



000
FTUS43 KMPX 191700
TAFEAU
TAF
KEAU 191720Z 1918/2018 21010KT P6SM SCT120
     FM192200 25006KT P6SM SKC
     FM201000 32004KT P6SM SKC=



000
FTUS43 KMPX 191700
TAFAXN
TAF
KAXN 191720Z 1918/2018 29012KT P6SM SKC
     FM200000 33007KT P6SM SKC=



000
FTUS43 KMPX 191600 AAA
TAFRWF
TAF AMD
KRWF 191643Z 1917/2012 24010G16KT P6SM SKC
     FM191900 27011KT P6SM SKC
     FM200100 31007KT P6SM SKC=



000
FTUS43 KMPX 191400 AAA
TAFEAU
TAF AMD
KEAU 191448Z 1915/2012 19005KT P6SM SCT200
     FM191900 21010KT P6SM FEW200
     FM200000 25006KT P6SM SKC
     FM201000 32004KT P6SM SKC=



000
FTUS43 KMPX 191400 AAA
TAFSTC
TAF AMD
KSTC 191447Z 1915/2012 22011KT P6SM FEW200
     FM192000 27010KT P6SM SKC
     FM200100 32006KT P6SM SKC=



000
FTUS43 KMPX 191400 AAA
TAFMSP
TAF AMD
KMSP 191420Z 1914/2018 21010G15KT P6SM FEW200 BKN300
     FM191900 23013G18KT P6SM FEW200
     FM200000 28007KT P6SM SKC
     FM200700 32006KT P6SM SKC=



000
FTUS43 KMPX 191100
TAFRWF
TAF
KRWF 191125Z 1912/2012 21013KT P6SM SCT200
     FM191900 27011KT P6SM SKC
     FM200100 31007KT P6SM SKC=



000
FTUS43 KMPX 191100
TAFEAU
TAF
KEAU 191125Z 1912/2012 00000KT P6SM BKN200
     FM191400 19005KT P6SM SCT200
     FM191900 21010KT P6SM FEW200
     FM200000 25006KT P6SM SKC
     FM201000 32004KT P6SM SKC=



000
FTUS43 KMPX 191100
TAFAXN
TAF
KAXN 191125Z 1912/2012 21010KT P6SM SCT200
     FM191900 27012KT P6SM SKC
     FM200000 32007KT P6SM SKC=



000
FTUS43 KMPX 191100
TAFSTC
TAF
KSTC 191125Z 1912/2012 18009KT P6SM BKN200
     FM191500 22011KT P6SM FEW200
     FM192000 27010KT P6SM SKC
     FM200100 32006KT P6SM SKC=



000
FTUS43 KMPX 191100
TAFMSP
TAF
KMSP 191125Z 1912/2018 17007KT P6SM BKN200
     FM191400 19010KT P6SM SCT200
     FM191900 23013G18KT P6SM FEW200
     FM200000 28007KT P6SM SKC
     FM200700 32006KT P6SM SKC=



000
FTUS43 KMPX 190800 AAA
TAFMSP
TAF AMD
KMSP 190846Z 1909/2012 15005KT P6SM BKN200
     FM191400 19007KT P6SM SCT150
     FM191900 23012G18KT P6SM SCT150
     FM200000 29007KT P6SM SKC=



000
FTUS43 KMPX 190700 AAA
TAFEAU
TAF AMD
KEAU 190708Z 1907/2006 00000KT 3/4SM BR FEW200
     FM191000 17002KT 5SM BR BKN200
     FM191300 18009KT P6SM SCT200
     FM191900 21011G16KT P6SM FEW200
     FM192300 24006KT P6SM SKC=



000
FTUS43 KMPX 190500
TAFSTC
TAF
KSTC 190526Z 1906/2006 16007KT P6SM BKN150
     FM191400 22011KT P6SM SCT150
     FM192000 27010KT P6SM SKC
     FM200100 31006KT P6SM SKC=



000
FTUS43 KMPX 190500
TAFAXN
TAF
KAXN 190526Z 1906/2006 17009KT P6SM SCT150
     FM191300 21010KT P6SM FEW150
     FM191900 27011KT P6SM SKC
     FM200000 31006KT P6SM SKC=



000
FTUS43 KMPX 190500
TAFRWF
TAF
KRWF 190526Z 1906/2006 17008KT P6SM BKN150
     FM191300 21012G17KT P6SM SCT150
     FM191900 26011KT P6SM FEW150
     FM200100 30007KT P6SM SKC=



000
FTUS43 KMPX 190500
TAFMSP
TAF
KMSP 190526Z 1906/2012 15007KT P6SM BKN200
     FM191300 19009KT P6SM SCT150
     FM191900 23012G18KT P6SM SCT150
     FM200000 29007KT P6SM SKC=



000
FTUS43 KMPX 190500
TAFEAU
TAF
KEAU 190526Z 1906/2006 VRB03KT P6SM SCT200
     FM191400 18009KT P6SM BKN150
     FM191900 21011G16KT P6SM SCT150
     FM192300 24006KT P6SM SKC=



    US Dept of Commerce
    National Oceanic and Atmospheric Administration
    National Weather Service
    1325 East West Highway
    Silver Spring, MD 20910
    Page Author: NWS Internet Services Team
Disclaimer
Information Quality
Credits
Glossary
Privacy Policy
Freedom of Information Act (FOIA)
About Us
Career Opportunities